createdAt,value
2023-03-19T00:01:33.564Z,9.03
2023-03-19T00:04:03.117Z,10.70
2023-03-19T00:06:32.372Z,8.60
2023-03-19T00:09:01.678Z,8.85
2023-03-19T00:11:30.938Z,11.05
2023-03-19T00:14:00.696Z,8.75
2023-03-19T00:16:29.993Z,9.15
2023-03-19T00:18:59.219Z,11.53
2023-03-19T00:21:30.619Z,9.10
2023-03-19T00:24:01.988Z,8.73
2023-03-19T00:26:32.370Z,10.20
2023-03-19T00:29:02.674Z,10.13
2023-03-19T00:31:32.112Z,12.82
2023-03-19T00:34:01.852Z,11.63
2023-03-19T00:36:31.434Z,10.15
2023-03-19T00:39:01.157Z,9.95
2023-03-19T00:41:30.357Z,9.23
2023-03-19T00:44:00.318Z,9.55
2023-03-19T00:46:31.407Z,11.20
2023-03-19T00:49:01.472Z,9.73
2023-03-19T00:51:30.704Z,10.93
2023-03-19T00:53:59.925Z,12.75
2023-03-19T00:56:29.424Z,12.65
2023-03-19T00:58:58.979Z,12.95
2023-03-19T01:01:28.533Z,14.87
2023-03-19T01:03:59.099Z,13.10
2023-03-19T01:06:28.558Z,13.32
2023-03-19T01:08:58.047Z,12.73
2023-03-19T01:11:27.396Z,11.35
2023-03-19T01:13:56.630Z,13.90
2023-03-19T01:16:26.412Z,13.50
2023-03-19T01:18:55.982Z,15.18
2023-03-19T01:21:25.969Z,15.78
2023-03-19T01:23:55.954Z,14.47
2023-03-19T01:26:26.233Z,14.50
2023-03-19T01:28:59.422Z,14.38
2023-03-19T01:31:29.239Z,15.48
2023-03-19T01:34:06.591Z,13.10
2023-03-19T01:36:40.234Z,18.35
2023-03-19T01:39:11.730Z,20.23
2023-03-19T01:41:41.159Z,17.15
2023-03-19T01:44:33.471Z,15.93
2023-03-19T01:47:22.549Z,14.73
2023-03-19T01:50:13.054Z,16.87
2023-03-19T01:52:43.250Z,17.52
2023-03-19T01:55:14.315Z,18.90
2023-03-19T01:57:48.277Z,18.35
2023-03-19T02:00:28.713Z,17.27
2023-03-19T02:03:02.188Z,17.00
2023-03-19T02:05:46.217Z,16.30
2023-03-19T02:08:17.221Z,17.32
2023-03-19T02:10:48.188Z,17.00
2023-03-19T02:13:18.029Z,18.98
2023-03-19T02:15:47.708Z,17.92
2023-03-19T02:18:17.430Z,18.00
2023-03-19T02:21:08.526Z,20.95
2023-03-19T02:24:11.868Z,19.82
2023-03-19T02:26:46.467Z,18.05
2023-03-19T02:29:15.858Z,21.07
2023-03-19T02:31:47.303Z,21.45
2023-03-19T02:34:25.994Z,22.07
2023-03-19T02:37:02.423Z,20.57
2023-03-19T02:39:43.612Z,22.85
2023-03-19T02:42:15.926Z,23.47
2023-03-19T02:44:46.275Z,25.43
2023-03-19T02:47:15.723Z,24.90
2023-03-19T02:49:46.267Z,27.70
2023-03-19T02:52:15.638Z,25.37
2023-03-19T02:54:45.305Z,27.58
2023-03-19T02:57:14.707Z,29.80
2023-03-19T02:59:44.274Z,28.02
2023-03-19T03:02:14.226Z,28.07
2023-03-19T03:04:43.839Z,30.52
2023-03-19T03:07:13.135Z,29.48
2023-03-19T03:09:42.581Z,29.95
2023-03-19T03:12:12.129Z,35.92
2023-03-19T03:14:41.938Z,29.63
2023-03-19T03:17:11.294Z,28.55
2023-03-19T03:19:40.688Z,33.83
2023-03-19T03:22:10.064Z,30.17
2023-03-19T03:24:39.378Z,30.90
2023-03-19T03:27:09.570Z,30.80
2023-03-19T03:29:38.799Z,35.63
2023-03-19T03:32:09.184Z,32.33
2023-03-19T03:34:38.425Z,30.40
2023-03-19T03:37:09.386Z,29.98
2023-03-19T03:39:38.629Z,31.85
2023-03-19T03:42:08.386Z,32.33
2023-03-19T03:44:38.347Z,31.07
2023-03-19T03:47:08.163Z,29.63
2023-03-19T03:49:37.513Z,35.88
2023-03-19T03:52:08.510Z,34.20
2023-03-19T03:54:37.939Z,37.10
2023-03-19T03:57:08.093Z,39.08
2023-03-19T03:59:37.488Z,37.67
2023-03-19T04:02:07.488Z,37.48
2023-03-19T04:04:37.255Z,37.63
2023-03-19T04:07:06.832Z,40.50
2023-03-19T04:09:37.897Z,36.23
2023-03-19T04:12:07.470Z,40.55
2023-03-19T04:14:37.789Z,36.10
2023-03-19T04:17:07.751Z,41.13
2023-03-19T04:19:37.192Z,34.08
2023-03-19T04:22:08.149Z,39.45
2023-03-19T04:24:37.787Z,40.03
2023-03-19T04:27:08.566Z,47.03
2023-03-19T04:29:38.268Z,50.25
2023-03-19T04:32:08.821Z,49.18
2023-03-19T04:34:38.611Z,47.23
2023-03-19T04:37:09.663Z,53.35
2023-03-19T04:39:40.609Z,51.50
2023-03-19T04:42:10.090Z,51.42
2023-03-19T04:44:41.048Z,55.92
2023-03-19T04:47:11.419Z,51.68
2023-03-19T04:49:42.535Z,48.33
2023-03-19T04:52:12.117Z,51.37
2023-03-19T04:54:42.053Z,48.63
2023-03-19T04:57:11.428Z,46.50
2023-03-19T04:59:42.083Z,50.10
2023-03-19T05:02:12.827Z,47.73
2023-03-19T05:04:42.974Z,46.50
2023-03-19T05:07:14.146Z,49.00
2023-03-19T05:09:44.007Z,59.20
2023-03-19T05:12:14.505Z,53.23
2023-03-19T05:14:45.521Z,51.63
2023-03-19T05:17:22.586Z,64.12
2023-03-19T05:19:57.022Z,52.48
2023-03-19T05:22:27.410Z,60.33
2023-03-19T05:24:57.761Z,58.92
2023-03-19T05:27:29.242Z,66.57
2023-03-19T05:30:08.027Z,60.28
2023-03-19T05:32:59.688Z,63.50
2023-03-19T05:35:37.611Z,63.42
2023-03-19T05:38:09.807Z,64.30
2023-03-19T05:40:41.036Z,61.48
2023-03-19T05:43:13.124Z,60.95
2023-03-19T05:45:43.582Z,58.85
2023-03-19T05:48:14.527Z,60.50
2023-03-19T05:50:45.223Z,62.45
2023-03-19T05:53:16.430Z,69.55
2023-03-19T05:55:47.499Z,62.40
2023-03-19T05:58:17.097Z,58.50
2023-03-19T06:00:48.818Z,66.77
2023-03-19T06:03:18.327Z,63.13
2023-03-19T06:05:53.851Z,62.85
2023-03-19T06:08:24.791Z,63.05
2023-03-19T06:11:02.009Z,66.47
2023-03-19T06:13:31.337Z,63.25
2023-03-19T06:16:02.764Z,65.87
2023-03-19T06:18:40.006Z,66.45
2023-03-19T06:21:10.986Z,65.83
2023-03-19T06:23:40.952Z,67.12
2023-03-19T06:26:12.115Z,67.65
2023-03-19T06:28:43.039Z,67.08
2023-03-19T06:31:12.861Z,63.13
2023-03-19T06:33:43.910Z,67.65
2023-03-19T06:36:13.888Z,62.30
2023-03-19T06:38:43.247Z,63.00
2023-03-19T06:41:13.053Z,59.95
2023-03-19T06:43:43.102Z,62.78
2023-03-19T06:46:13.203Z,60.60
2023-03-19T06:48:42.424Z,63.50
2023-03-19T06:51:11.722Z,68.55
2023-03-19T06:53:41.100Z,65.35
2023-03-19T06:56:10.611Z,86.45
2023-03-19T06:58:39.848Z,87.37
2023-03-19T07:01:09.355Z,87.70
2023-03-19T07:03:38.819Z,91.97
2023-03-19T07:06:08.202Z,88.95
2023-03-19T07:08:37.747Z,88.65
2023-03-19T07:11:07.984Z,85.90
2023-03-19T07:13:38.056Z,84.67
2023-03-19T07:16:07.932Z,82.78
2023-03-19T07:18:37.868Z,86.82
2023-03-19T07:21:07.184Z,74.77
2023-03-19T07:23:36.758Z,71.12
2023-03-19T07:26:06.414Z,75.50
2023-03-19T07:28:36.595Z,67.42
2023-03-19T07:31:07.087Z,67.05
2023-03-19T07:33:36.831Z,62.83
2023-03-19T07:36:07.247Z,56.55
2023-03-19T07:38:36.753Z,54.80
2023-03-19T07:41:06.243Z,60.40
2023-03-19T07:43:36.082Z,62.70
2023-03-19T07:46:06.444Z,63.52
2023-03-19T07:48:36.456Z,62.25
2023-03-19T07:51:05.984Z,62.25
2023-03-19T07:53:35.498Z,63.80
2023-03-19T07:56:05.058Z,61.50
2023-03-19T07:58:34.315Z,61.77
2023-03-19T08:01:03.559Z,57.23
2023-03-19T08:03:33.347Z,59.38
2023-03-19T08:06:03.938Z,58.05
2023-03-19T08:08:34.997Z,60.65
2023-03-19T08:11:05.034Z,49.88
2023-03-19T08:13:34.738Z,50.88
2023-03-19T08:16:04.267Z,47.40
2023-03-19T08:18:33.892Z,49.27
2023-03-19T08:21:04.063Z,46.40
2023-03-19T08:23:33.356Z,47.55
2023-03-19T08:26:02.974Z,43.20
2023-03-19T08:28:32.258Z,46.70
2023-03-19T08:31:10.242Z,42.40
2023-03-19T08:33:39.988Z,45.90
2023-03-19T08:36:12.354Z,37.15
2023-03-19T08:38:42.517Z,40.23
2023-03-19T08:41:11.951Z,36.93
2023-03-19T08:43:41.229Z,33.73
2023-03-19T08:46:11.154Z,37.58
2023-03-19T08:48:41.581Z,39.15
2023-03-19T08:51:11.593Z,33.42
2023-03-19T08:53:41.519Z,33.78
2023-03-19T08:56:10.992Z,37.33
2023-03-19T08:58:42.183Z,36.00
2023-03-19T09:01:14.086Z,38.58
2023-03-19T09:03:45.370Z,34.25
2023-03-19T09:06:15.004Z,32.58
2023-03-19T09:08:45.110Z,33.23
2023-03-19T09:11:18.081Z,27.10
2023-03-19T09:13:47.366Z,34.00
2023-03-19T09:16:17.645Z,35.30
2023-03-19T09:18:46.995Z,32.65
2023-03-19T09:21:16.537Z,31.90
2023-03-19T09:23:45.969Z,29.75
2023-03-19T09:26:15.487Z,34.90
2023-03-19T09:28:44.718Z,26.05
2023-03-19T09:31:14.048Z,28.32
2023-03-19T09:33:43.384Z,28.50
2023-03-19T09:36:13.331Z,25.40
2023-03-19T09:38:42.729Z,29.60
2023-03-19T09:41:17.962Z,27.27
2023-03-19T09:44:05.633Z,26.85
2023-03-19T09:46:42.720Z,31.90
2023-03-19T09:49:27.613Z,28.70
2023-03-19T09:52:09.686Z,32.70
2023-03-19T09:54:42.274Z,33.15
2023-03-19T09:59:42.542Z,36.15
2023-03-19T10:02:32.486Z,40.65
2023-03-19T10:05:13.705Z,37.78
2023-03-19T10:07:58.270Z,39.50
2023-03-19T10:10:33.481Z,42.95
2023-03-19T10:13:11.747Z,38.10
2023-03-19T10:15:43.629Z,38.75
2023-03-19T10:18:20.897Z,48.30
2023-03-19T10:21:05.277Z,49.18
2023-03-19T10:23:57.923Z,44.88
2023-03-19T10:26:34.473Z,43.02
2023-03-19T10:29:07.045Z,37.65
2023-03-19T10:34:24.644Z,35.83
2023-03-19T10:37:06.554Z,31.75
2023-03-19T10:39:37.770Z,32.87
2023-03-19T10:42:22.551Z,26.35
2023-03-19T10:45:07.100Z,34.60
2023-03-19T10:47:41.180Z,31.25
2023-03-19T10:50:13.691Z,34.05
2023-03-19T10:55:21.264Z,41.25
2023-03-19T10:57:52.070Z,37.45
2023-03-19T11:00:27.016Z,43.68
2023-03-19T11:02:59.190Z,44.38
2023-03-19T11:05:31.944Z,39.63
2023-03-19T11:08:07.376Z,47.75
2023-03-19T11:10:37.694Z,41.45
2023-03-19T11:13:10.063Z,45.48
2023-03-19T11:15:40.439Z,44.50
2023-03-19T11:18:15.684Z,45.12
2023-03-19T11:20:48.052Z,44.83
2023-03-19T11:23:18.931Z,46.63
2023-03-19T11:25:52.985Z,46.10
2023-03-19T11:28:26.423Z,50.85
2023-03-19T11:31:22.610Z,43.95
2023-03-19T11:34:27.710Z,45.08
2023-03-19T11:37:15.365Z,40.98
2023-03-19T11:40:10.215Z,42.17
2023-03-19T11:42:48.939Z,37.90
2023-03-19T11:45:31.572Z,40.28
2023-03-19T11:48:37.436Z,33.45
2023-03-19T11:51:27.813Z,32.90
2023-03-19T11:54:05.885Z,32.10
2023-03-19T11:57:00.052Z,32.70
2023-03-19T12:00:04.244Z,58.20
2023-03-19T12:03:00.471Z,31.77
2023-03-19T12:05:48.232Z,31.15
2023-03-19T12:08:32.788Z,35.63
2023-03-19T12:11:27.936Z,34.90
2023-03-19T12:14:18.711Z,36.90
2023-03-19T12:17:04.694Z,33.70
2023-03-19T12:19:55.479Z,33.25
2023-03-19T12:22:30.886Z,31.17
2023-03-19T12:25:06.035Z,30.32
2023-03-19T12:28:06.117Z,29.50
2023-03-19T12:30:43.476Z,28.95
2023-03-19T12:33:32.558Z,29.12
2023-03-19T12:36:02.305Z,28.00
2023-03-19T12:38:51.307Z,26.90
2023-03-19T12:41:23.681Z,26.82
2023-03-19T12:46:41.900Z,23.47
2023-03-19T12:49:31.651Z,25.95
2023-03-19T12:52:07.165Z,21.80
2023-03-19T12:54:39.437Z,26.52
2023-03-19T12:57:29.785Z,23.20
2023-03-19T13:00:02.962Z,19.67
2023-03-19T13:02:41.650Z,22.30
2023-03-19T13:05:21.194Z,21.20
2023-03-19T13:08:02.337Z,19.77
2023-03-19T13:10:35.638Z,19.90
2023-03-19T13:13:24.303Z,19.12
2023-03-19T13:15:56.908Z,19.30
2023-03-19T13:18:32.406Z,21.05
2023-03-19T13:21:16.787Z,18.50
2023-03-19T13:23:47.889Z,20.82
2023-03-19T13:26:17.757Z,20.68
2023-03-19T13:29:18.141Z,25.20
2023-03-19T13:31:47.480Z,22.75
2023-03-19T13:34:22.000Z,23.25
2023-03-19T13:37:02.861Z,24.02
2023-03-19T13:39:34.480Z,24.47
2023-03-19T13:42:27.377Z,23.43
2023-03-19T13:45:16.951Z,20.48
2023-03-19T13:47:48.180Z,22.25
2023-03-19T13:50:23.688Z,22.45
2023-03-19T13:52:57.430Z,23.10
2023-03-19T13:55:31.300Z,23.52
2023-03-19T13:58:14.434Z,22.82
2023-03-19T14:00:47.192Z,28.32
2023-03-19T14:03:22.564Z,22.40
2023-03-19T14:05:54.265Z,22.90
2023-03-19T14:08:32.669Z,25.07
2023-03-19T14:11:04.694Z,26.87
2023-03-19T14:13:41.926Z,24.72
2023-03-19T14:16:26.205Z,26.52
2023-03-19T14:18:59.540Z,27.45
2023-03-19T14:21:47.152Z,26.97
2023-03-19T14:27:18.780Z,22.42
2023-03-19T14:29:48.696Z,18.53
2023-03-19T14:32:19.573Z,21.45
2023-03-19T14:34:50.657Z,18.37
2023-03-19T14:37:32.702Z,18.60
2023-03-19T14:40:11.173Z,19.80
2023-03-19T14:42:56.170Z,18.07
2023-03-19T14:46:01.281Z,21.57
2023-03-19T14:48:54.895Z,20.30
2023-03-19T14:51:46.045Z,19.45
2023-03-19T14:54:27.302Z,19.92
2023-03-19T14:56:58.057Z,19.07
2023-03-19T14:59:27.468Z,19.40
2023-03-19T15:01:57.144Z,21.15
2023-03-19T15:04:27.232Z,20.37
2023-03-19T15:06:58.957Z,22.48
2023-03-19T15:09:31.790Z,18.60
2023-03-19T15:12:15.198Z,22.32
2023-03-19T15:15:16.667Z,17.95
2023-03-19T15:17:54.431Z,22.17
2023-03-19T15:20:21.803Z,21.40
2023-03-19T15:23:01.598Z,23.77
2023-03-19T15:25:31.168Z,22.07
2023-03-19T15:28:09.859Z,18.37
2023-03-19T15:30:52.298Z,15.08
2023-03-19T15:33:37.192Z,15.35
2023-03-19T15:35:57.240Z,18.45
2023-03-19T15:38:29.237Z,18.23
2023-03-19T15:40:58.813Z,22.95
2023-03-19T15:43:28.353Z,19.42
2023-03-19T15:45:57.846Z,16.87
2023-03-19T15:48:42.385Z,18.17
2023-03-19T15:51:12.555Z,16.23
2023-03-19T15:53:42.479Z,16.45
2023-03-19T15:56:14.024Z,15.13
2023-03-19T15:58:50.778Z,19.27
2023-03-19T16:01:21.611Z,22.25
2023-03-19T16:03:54.385Z,19.60
2023-03-19T16:06:27.287Z,20.08
2023-03-19T16:08:57.958Z,19.07
2023-03-19T16:11:34.023Z,18.92
2023-03-19T16:14:18.595Z,16.95
2023-03-19T16:16:49.178Z,19.80
2023-03-19T16:19:38.774Z,19.30
2023-03-19T16:22:17.426Z,16.02
2023-03-19T16:24:47.603Z,14.47
2023-03-19T16:27:22.631Z,15.03
2023-03-19T16:29:59.658Z,17.05
2023-03-19T16:32:30.918Z,16.40
2023-03-19T16:35:09.551Z,17.45
2023-03-19T16:37:44.169Z,16.23
2023-03-19T16:40:16.620Z,17.23
2023-03-19T16:42:54.327Z,15.30
2023-03-19T16:45:31.755Z,17.20
2023-03-19T16:48:06.240Z,15.35
2023-03-19T16:50:37.669Z,12.60
2023-03-19T16:53:16.061Z,16.48
2023-03-19T16:55:45.396Z,12.58
2023-03-19T16:58:20.058Z,12.88
2023-03-19T17:00:49.688Z,14.45
2023-03-19T17:03:20.001Z,13.50
2023-03-19T17:05:49.790Z,14.53
2023-03-19T17:08:20.781Z,11.83
2023-03-19T17:10:52.268Z,15.20
2023-03-19T17:13:28.621Z,14.20
2023-03-19T17:16:04.515Z,9.55
2023-03-19T17:18:36.691Z,10.68
2023-03-19T17:21:26.238Z,16.40
2023-03-19T17:23:56.498Z,12.28
2023-03-19T17:26:28.494Z,13.90
2023-03-19T17:28:58.026Z,13.38
2023-03-19T17:31:30.213Z,17.20
2023-03-19T17:34:07.663Z,20.17
2023-03-19T17:36:37.285Z,14.83
2023-03-19T17:39:07.762Z,15.65
2023-03-19T17:41:38.877Z,18.67
2023-03-19T17:44:08.629Z,20.37
2023-03-19T17:46:41.787Z,20.90
2023-03-19T17:49:13.714Z,20.00
2023-03-19T17:51:43.125Z,21.93
2023-03-19T17:54:13.792Z,23.87
2023-03-19T17:56:44.212Z,21.52
2023-03-19T17:59:13.729Z,23.85
2023-03-19T18:01:43.713Z,25.55
2023-03-19T18:04:18.703Z,22.00
2023-03-19T18:06:51.135Z,40.75
2023-03-19T18:09:23.057Z,33.40
2023-03-19T18:11:52.542Z,23.85
2023-03-19T18:14:22.102Z,26.25
2023-03-19T18:16:51.969Z,35.28
2023-03-19T18:19:24.504Z,28.38
2023-03-19T18:24:22.513Z,26.50
2023-03-19T18:26:52.685Z,37.25
2023-03-19T18:29:21.936Z,30.40
2023-03-19T18:31:52.382Z,36.23
2023-03-19T18:34:21.816Z,33.30
2023-03-19T18:36:51.538Z,29.25
2023-03-19T18:39:21.468Z,37.55
2023-03-19T18:41:51.450Z,32.00
2023-03-19T18:44:21.063Z,37.85
2023-03-19T18:46:50.576Z,30.23
2023-03-19T18:49:25.511Z,33.30
2023-03-19T18:52:02.669Z,30.27
2023-03-19T18:54:26.908Z,29.52
2023-03-19T18:56:57.212Z,26.17
2023-03-19T18:59:32.609Z,31.23
2023-03-19T19:02:28.021Z,23.70
2023-03-19T19:04:58.266Z,30.65
2023-03-19T19:07:27.914Z,39.50
2023-03-19T19:09:57.788Z,40.33
2023-03-19T19:12:28.290Z,29.27
2023-03-19T19:14:58.868Z,39.10
2023-03-19T19:17:29.741Z,29.40
2023-03-19T19:19:59.057Z,31.15
2023-03-19T19:22:30.041Z,30.57
2023-03-19T19:24:59.402Z,35.35
2023-03-19T19:27:28.839Z,30.75
2023-03-19T19:29:59.842Z,27.80
2023-03-19T19:32:31.285Z,27.20
2023-03-19T19:35:00.648Z,28.75
2023-03-19T19:37:30.124Z,35.00
2023-03-19T19:39:59.392Z,29.50
2023-03-19T19:42:29.281Z,35.45
2023-03-19T19:44:59.097Z,36.50
2023-03-19T19:47:28.775Z,33.08
2023-03-19T19:49:58.204Z,40.23
2023-03-19T19:52:27.663Z,32.13
2023-03-19T19:54:56.961Z,36.15
2023-03-19T19:57:26.293Z,29.00
2023-03-19T19:59:56.364Z,28.32
2023-03-19T20:02:29.957Z,28.95
2023-03-19T20:04:59.838Z,32.17
2023-03-19T20:07:29.868Z,28.75
2023-03-19T20:09:59.192Z,24.47
2023-03-19T20:12:31.958Z,27.48
2023-03-19T20:15:01.463Z,24.07
2023-03-19T20:17:30.738Z,26.45
2023-03-19T20:20:00.516Z,21.75
2023-03-19T20:22:29.886Z,26.35
2023-03-19T20:24:59.511Z,25.70
2023-03-19T20:27:31.520Z,23.55
2023-03-19T20:30:01.429Z,23.77
2023-03-19T20:32:33.161Z,21.68
2023-03-19T20:35:04.116Z,30.50
2023-03-19T20:37:33.526Z,29.20
2023-03-19T20:40:03.189Z,38.02
2023-03-19T20:42:35.248Z,35.28
2023-03-19T20:45:06.051Z,30.82
2023-03-19T20:47:35.414Z,38.60
2023-03-19T20:50:10.231Z,34.40
2023-03-19T20:52:38.581Z,30.65
2023-03-19T20:55:09.609Z,31.95
2023-03-19T20:57:38.954Z,35.28
2023-03-19T21:00:22.440Z,35.15
2023-03-19T21:02:53.594Z,36.08
2023-03-19T21:05:23.767Z,42.75
2023-03-19T21:07:54.777Z,42.55
2023-03-19T21:10:35.799Z,33.95
2023-03-19T21:13:05.452Z,29.12
2023-03-19T21:15:35.266Z,30.05
2023-03-19T21:18:05.020Z,32.60
2023-03-19T21:20:35.708Z,36.95
2023-03-19T21:23:26.555Z,31.37
2023-03-19T21:25:56.211Z,32.38
2023-03-19T21:28:34.842Z,25.82
2023-03-19T21:31:04.295Z,30.10
2023-03-19T21:33:36.482Z,27.60
2023-03-19T21:36:07.001Z,33.08
2023-03-19T21:38:36.401Z,22.98
2023-03-19T21:41:11.408Z,28.57
2023-03-19T21:43:47.669Z,33.83
2023-03-19T21:46:24.603Z,32.38
2023-03-19T21:48:49.019Z,36.63
2023-03-19T21:51:18.261Z,37.73
2023-03-19T21:53:47.918Z,37.23
2023-03-19T21:56:23.055Z,33.78
2023-03-19T21:58:57.299Z,33.58
2023-03-19T22:01:29.474Z,32.85
2023-03-19T22:04:01.825Z,25.90
2023-03-19T22:06:43.065Z,28.02
2023-03-19T22:09:14.997Z,28.62
2023-03-19T22:11:46.409Z,28.85
2023-03-19T22:14:32.283Z,38.20
2023-03-19T22:17:10.941Z,35.48
2023-03-19T22:19:41.423Z,34.27
2023-03-19T22:22:12.404Z,29.60
2023-03-19T22:24:41.880Z,32.35
2023-03-19T22:27:19.525Z,35.73
2023-03-19T22:29:51.616Z,35.25
2023-03-19T22:32:25.693Z,26.73
2023-03-19T22:34:57.568Z,35.73
2023-03-19T22:37:29.899Z,31.60
2023-03-19T22:39:59.120Z,31.57
2023-03-19T22:42:28.552Z,35.48
2023-03-19T22:44:57.850Z,32.63
2023-03-19T22:47:29.042Z,28.20
2023-03-19T22:49:58.346Z,31.42
2023-03-19T22:52:29.142Z,31.27
2023-03-19T22:54:58.554Z,26.60
2023-03-19T22:57:27.873Z,26.17
2023-03-19T22:59:57.189Z,22.85
2023-03-19T23:02:27.166Z,23.98
2023-03-19T23:04:56.397Z,21.80
2023-03-19T23:07:26.137Z,25.35
2023-03-19T23:09:56.734Z,23.60
2023-03-19T23:12:26.634Z,24.72
2023-03-19T23:14:56.745Z,21.10
2023-03-19T23:17:25.968Z,18.35
2023-03-19T23:19:55.661Z,20.08
2023-03-19T23:22:25.687Z,18.98
2023-03-19T23:24:55.467Z,16.93
2023-03-19T23:27:26.727Z,17.25
2023-03-19T23:29:56.223Z,21.48
2023-03-19T23:32:27.066Z,22.22
2023-03-19T23:35:01.200Z,22.50
2023-03-19T23:37:29.107Z,22.45
2023-03-19T23:39:58.543Z,26.17
2023-03-19T23:42:30.469Z,25.85
2023-03-19T23:45:01.958Z,23.47
2023-03-19T23:47:31.775Z,25.37
2023-03-19T23:50:01.191Z,28.85
2023-03-19T23:52:30.758Z,31.48
2023-03-19T23:54:59.953Z,30.12
2023-03-19T23:57:29.194Z,27.50
2023-03-19T23:59:58.975Z,26.27
